LGW weather

London Gatwick Airport
London, England, United Kingdom

Public forecast

Using degrees Celsius for public forecast. Weather courtesy of forecast.io.

Current aviation weather report (METAR) for London Gatwick Airport

Retrieved 2020/04/01 10:50 UTC (18 minutes ago):

EGKK 011050Z 03005KT 290V090 9999 FEW043 09/M01 Q1023

Aviation forecast (TAF) for London Gatwick Airport

Retrieved 2020/04/01 06:00 UTC (5 hours ago):

TAF EGKK 010455Z 0106/0212 02004KT 9999 SCT040 TEMPO 0106/0108 8000 BECMG 0112/0115 30010KT PROB40 TEMPO 0203/0208 BKN010